Time;durP1;ratioP1;P1;durP2;ratioP2;P2;SDS_P1;SDS_P2;PMS_P1;PMS_P2;Temp;Humidity;BMP_temperature;BMP_pressure;BME280_temperature;BME280_humidity;BME280_pressure;Samples;Min_cycle;Max_cycle;Signal;HPM_P1;HPM_P2
2023/06/24 00:01:41;;;;;;;7.18;4.05;;;24.50;74.60;;;;;;10138434;28;20024;-65
2023/06/24 00:06:31;;;;;;;4.88;3.00;;;24.50;75.70;;;;;;10139490;28;20039;-64
2023/06/24 00:11:22;;;;;;;6.22;3.70;;;24.60;75.30;;;;;;10112911;28;20028;-65
2023/06/24 00:16:13;;;;;;;4.68;3.25;;;24.50;75.60;;;;;;10138739;28;20038;-64
2023/06/24 00:21:04;;;;;;;6.88;4.15;;;24.50;76.10;;;;;;10138831;28;20039;-63
2023/06/24 00:25:55;;;;;;;5.43;3.33;;;24.30;76.70;;;;;;10136837;28;20044;-62
2023/06/24 00:30:47;;;;;;;6.25;3.55;;;24.20;77.30;;;;;;10186744;28;20048;-62
2023/06/24 00:35:38;;;;;;;7.18;3.33;;;24.00;78.20;;;;;;10163381;28;20024;-59
2023/06/24 00:40:29;;;;;;;4.15;3.17;;;23.80;78.50;;;;;;10160450;28;20034;-62
2023/06/24 00:45:20;;;;;;;5.18;3.20;;;23.70;79.60;;;;;;10162761;28;20031;-63
2023/06/24 00:50:14;;;;;;;6.30;4.13;;;23.70;79.20;;;;;;10171907;28;20032;-62
2023/06/24 00:55:06;;;;;;;6.75;3.65;;;23.60;79.50;;;;;;10177359;28;20043;-61
2023/06/24 00:59:59;;;;;;;4.78;3.25;;;23.50;79.90;;;;;;10183536;28;20460;-62
2023/06/24 01:04:51;;;;;;;4.50;3.10;;;23.50;81.00;;;;;;10193453;28;20040;-62
2023/06/24 01:09:42;;;;;;;4.13;2.63;;;23.40;80.60;;;;;;10170115;28;20113;-61
2023/06/24 01:14:35;;;;;;;7.80;3.17;;;23.40;80.80;;;;;;10178059;28;20093;-63
2023/06/24 01:19:44;;;;;;;5.40;3.80;;;23.50;80.90;;;;;;10163367;28;20521;-63
2023/06/24 01:24:51;;;;;;;5.90;3.97;;;23.30;81.60;;;;;;10192977;28;20032;-62
2023/06/24 01:30:09;;;;;;;5.90;3.40;;;23.20;82.30;;;;;;10148655;28;20136;-61
2023/06/24 01:35:05;;;;;;;5.15;3.03;;;23.30;82.50;;;;;;10118902;28;20344;-61
2023/06/24 01:40:10;;;;;;;6.50;3.65;;;23.30;82.50;;;;;;10136422;28;20033;-61
2023/06/24 01:45:00;;;;;;;;;;;23.20;82.80;;;;;;10127208;28;20021;-61
2023/06/24 01:49:54;;;;;;;6.38;4.03;;;23.10;83.20;;;;;;10124923;28;19908;-63
2023/06/24 01:54:47;;;;;;;4.78;3.05;;;22.90;83.60;;;;;;10131207;28;20120;-61
2023/06/24 01:59:43;;;;;;;5.65;3.78;;;22.80;84.10;;;;;;10132121;28;20191;-62
2023/06/24 02:04:35;;;;;;;6.72;3.97;;;22.70;84.60;;;;;;10141975;28;20158;-64
2023/06/24 02:09:28;;;;;;;6.50;3.75;;;22.70;84.80;;;;;;10136147;28;20043;-64
2023/06/24 02:14:20;;;;;;;5.85;3.80;;;22.60;85.00;;;;;;10135894;28;20116;-64
2023/06/24 02:19:11;;;;;;;4.70;3.30;;;22.60;85.20;;;;;;10135821;28;20041;-62
2023/06/24 02:24:03;;;;;;;4.40;3.05;;;22.70;85.10;;;;;;10137878;28;20036;-61
2023/06/24 02:28:55;;;;;;;5.78;3.15;;;22.60;85.30;;;;;;10167859;28;20255;-60
2023/06/24 02:33:46;;;;;;;4.72;3.38;;;22.70;85.70;;;;;;10164740;28;20048;-62
2023/06/24 02:38:37;;;;;;;3.53;2.65;;;22.40;85.60;;;;;;10180746;28;20089;-61
2023/06/24 02:43:28;;;;;;;5.20;3.30;;;22.40;85.70;;;;;;10189271;28;20073;-60
2023/06/24 02:48:19;;;;;;;4.18;3.38;;;22.20;86.10;;;;;;10154202;28;20111;-61
2023/06/24 02:53:11;;;;;;;5.05;2.92;;;22.10;86.10;;;;;;10166083;28;20579;-62
2023/06/24 02:58:07;;;;;;;3.88;2.95;;;22.20;86.10;;;;;;10184323;28;20570;-61
2023/06/24 03:02:58;;;;;;;5.93;3.17;;;22.10;86.20;;;;;;10155318;28;20144;-61
2023/06/24 03:07:49;;;;;;;4.35;3.17;;;21.80;86.20;;;;;;10170983;28;20024;-61
2023/06/24 03:12:39;;;;;;;6.53;2.90;;;21.80;86.40;;;;;;10182506;28;20040;-60
2023/06/24 03:17:30;;;;;;;5.35;2.90;;;21.60;86.60;;;;;;10169594;28;20032;-62
2023/06/24 03:22:22;;;;;;;4.63;2.97;;;21.70;86.30;;;;;;10178490;28;20478;-61
2023/06/24 03:27:13;;;;;;;4.80;2.70;;;21.70;86.70;;;;;;10181441;28;20052;-63
2023/06/24 03:32:04;;;;;;;3.33;2.83;;;21.70;86.50;;;;;;10120363;28;20051;-62
2023/06/24 03:36:54;;;;;;;5.38;3.08;;;21.70;86.40;;;;;;10132519;28;20183;-63
2023/06/24 03:41:45;;;;;;;6.03;3.05;;;21.70;86.50;;;;;;10130195;28;20086;-63
2023/06/24 03:46:36;;;;;;;4.28;2.53;;;21.70;87.20;;;;;;10139997;28;20119;-65
2023/06/24 03:51:26;;;;;;;5.07;3.20;;;21.60;86.90;;;;;;10138888;28;20112;-62
2023/06/24 03:56:17;;;;;;;4.30;3.15;;;21.50;86.90;;;;;;10129200;28;20127;-63
2023/06/24 04:01:09;;;;;;;4.32;2.85;;;21.50;87.20;;;;;;10137892;28;20417;-62
2023/06/24 04:06:01;;;;;;;6.13;3.20;;;21.40;87.30;;;;;;10136732;28;20549;-61
2023/06/24 04:10:52;;;;;;;4.05;2.60;;;21.40;87.30;;;;;;10136943;28;20209;-64
2023/06/24 04:15:43;;;;;;;4.20;3.53;;;21.50;87.00;;;;;;10138103;28;20271;-61
2023/06/24 04:20:34;;;;;;;4.32;2.63;;;21.60;87.60;;;;;;10138930;28;20028;-63
2023/06/24 04:25:24;;;;;;;4.75;3.00;;;21.60;87.10;;;;;;10126240;28;20036;-61
2023/06/24 04:30:15;;;;;;;4.60;3.05;;;21.50;87.20;;;;;;10185056;28;20058;-66
2023/06/24 04:35:06;;;;;;;7.20;3.10;;;21.60;87.20;;;;;;10175056;28;20054;-61
2023/06/24 04:39:57;;;;;;;3.92;2.80;;;21.70;87.00;;;;;;10177242;28;20524;-61
2023/06/24 04:44:50;;;;;;;4.07;2.75;;;21.40;87.50;;;;;;10182866;28;20038;-63
2023/06/24 04:49:41;;;;;;;6.82;3.42;;;21.40;87.60;;;;;;10165556;28;20073;-60
2023/06/24 04:54:32;;;;;;;3.90;2.90;;;21.50;87.30;;;;;;10195895;28;20032;-61
2023/06/24 04:59:22;;;;;;;4.95;3.30;;;21.60;87.40;;;;;;10187338;28;20539;-61
2023/06/24 05:04:13;;;;;;;5.60;3.22;;;21.70;88.00;;;;;;10167115;28;20028;-61
2023/06/24 05:09:04;;;;;;;4.32;3.00;;;21.70;87.40;;;;;;10164445;28;20040;-62
2023/06/24 05:13:54;;;;;;;6.97;4.13;;;21.70;87.60;;;;;;10178123;28;20513;-61
2023/06/24 05:18:45;;;;;;;6.50;3.08;;;21.70;87.90;;;;;;10178409;28;20135;-60
2023/06/24 05:23:36;;;;;;;4.45;3.33;;;21.60;88.20;;;;;;10161565;28;20099;-60
2023/06/24 05:28:26;;;;;;;5.00;3.38;;;21.60;88.50;;;;;;10192537;28;20501;-61
2023/06/24 05:33:17;;;;;;;5.28;3.70;;;21.70;88.30;;;;;;10163280;28;20390;-60
2023/06/24 05:38:08;;;;;;;4.53;3.25;;;21.80;88.40;;;;;;10170565;28;20429;-61
2023/06/24 05:42:58;;;;;;;7.47;3.70;;;21.70;88.70;;;;;;10178853;28;20439;-61
2023/06/24 05:47:49;;;;;;;8.15;3.72;;;21.60;88.80;;;;;;10176499;28;20119;-60
2023/06/24 05:52:40;;;;;;;4.72;3.45;;;21.80;88.90;;;;;;10183798;28;20089;-61
2023/06/24 05:57:30;;;;;;;5.30;3.40;;;21.90;88.80;;;;;;10187644;28;20071;-60
2023/06/24 06:02:21;;;;;;;4.60;3.67;;;21.90;89.00;;;;;;10185450;28;20284;-61
2023/06/24 06:07:11;;;;;;;7.10;3.78;;;22.00;89.10;;;;;;10184906;28;20051;-61
2023/06/24 06:12:02;;;;;;;8.98;4.65;;;21.90;89.40;;;;;;10178274;28;20039;-64
2023/06/24 06:16:53;;;;;;;8.15;4.40;;;21.80;89.50;;;;;;10175912;28;20040;-62
2023/06/24 06:21:44;;;;;;;7.00;4.53;;;22.00;89.70;;;;;;10176091;28;20035;-63
2023/06/24 06:26:34;;;;;;;6.80;4.38;;;22.10;89.60;;;;;;10170332;28;20065;-65
2023/06/24 06:31:25;;;;;;;5.63;4.47;;;22.20;89.50;;;;;;10171618;28;20035;-64
2023/06/24 06:36:16;;;;;;;6.18;4.25;;;22.20;89.70;;;;;;10164363;28;20059;-63
2023/06/24 06:41:07;;;;;;;5.63;3.97;;;22.30;89.80;;;;;;10180118;28;20521;-62
2023/06/24 06:45:57;;;;;;;5.13;3.35;;;22.50;89.60;;;;;;10173538;28;20047;-62
2023/06/24 06:50:48;;;;;;;6.95;3.67;;;22.70;89.50;;;;;;10167564;28;20248;-62
2023/06/24 06:55:39;;;;;;;5.45;3.50;;;22.80;89.30;;;;;;10181368;28;20397;-62
2023/06/24 07:00:30;;;;;;;8.77;3.72;;;22.90;89.30;;;;;;10185587;28;20162;-61
2023/06/24 07:05:20;;;;;;;6.97;3.97;;;22.90;89.20;;;;;;10164640;28;20118;-60
2023/06/24 07:10:11;;;;;;;7.25;4.38;;;22.90;89.30;;;;;;10180503;28;20652;-62
2023/06/24 07:15:02;;;;;;;6.60;4.28;;;23.00;89.30;;;;;;10177202;28;20456;-62
2023/06/24 07:19:53;;;;;;;5.35;3.47;;;23.10;89.00;;;;;;10190044;28;20126;-60
2023/06/24 07:24:44;;;;;;;7.82;4.63;;;23.20;88.90;;;;;;10189011;28;20060;-63
2023/06/24 07:29:35;;;;;;;5.72;3.85;;;23.20;88.90;;;;;;10143557;28;20468;-61
2023/06/24 07:34:25;;;;;;;5.35;3.45;;;23.30;88.80;;;;;;10120386;28;20052;-60
2023/06/24 07:39:17;;;;;;;6.28;4.32;;;23.40;88.50;;;;;;10137364;28;20506;-62
2023/06/24 07:44:07;;;;;;;5.32;3.70;;;23.60;88.30;;;;;;10126583;28;20039;-63
2023/06/24 07:48:58;;;;;;;5.85;3.50;;;23.60;88.10;;;;;;10135023;28;20024;-63
2023/06/24 07:53:49;;;;;;;6.63;3.67;;;23.70;88.00;;;;;;10135339;28;20032;-61
2023/06/24 07:58:39;;;;;;;5.25;3.47;;;23.70;87.80;;;;;;10129704;28;20097;-64
2023/06/24 08:03:30;;;;;;;5.32;3.95;;;23.80;87.50;;;;;;10140063;28;20398;-63
2023/06/24 08:08:21;;;;;;;5.82;4.30;;;23.90;87.30;;;;;;10134870;28;20439;-63
2023/06/24 08:13:11;;;;;;;4.32;3.60;;;23.90;87.20;;;;;;10135644;28;20029;-63
2023/06/24 08:18:02;;;;;;;5.53;3.85;;;24.00;87.10;;;;;;10136623;28;20135;-63
2023/06/24 08:22:53;;;;;;;4.85;3.65;;;24.20;86.90;;;;;;10142448;28;20036;-62
2023/06/24 08:27:46;;;;;;;6.82;4.03;;;24.20;86.80;;;;;;10158112;28;20052;-64
2023/06/24 08:32:38;;;;;;;4.45;3.40;;;24.20;86.70;;;;;;10181170;28;20073;-64
2023/06/24 08:37:28;;;;;;;5.28;3.80;;;24.50;86.50;;;;;;10173110;28;20035;-64
2023/06/24 08:42:19;;;;;;;5.35;3.10;;;24.50;86.30;;;;;;10179843;28;20455;-63
2023/06/24 08:47:10;;;;;;;5.75;3.38;;;24.50;86.30;;;;;;10179574;28;20035;-62
2023/06/24 08:52:04;;;;;;;5.13;3.60;;;24.60;86.00;;;;;;10174230;28;20038;-62
2023/06/24 08:56:55;;;;;;;4.80;3.40;;;24.90;86.20;;;;;;10170662;28;20047;-62
2023/06/24 09:01:47;;;;;;;6.45;3.80;;;25.10;85.10;;;;;;10177998;28;20106;-64
2023/06/24 09:06:37;;;;;;;5.70;3.67;;;25.00;85.00;;;;;;10167905;28;20082;-65
2023/06/24 09:11:28;;;;;;;5.13;3.67;;;25.10;84.80;;;;;;10170620;28;20512;-64
2023/06/24 09:16:19;;;;;;;4.47;3.13;;;25.20;84.50;;;;;;10178462;28;20038;-63
2023/06/24 09:21:11;;;;;;;3.42;3.13;;;25.20;84.20;;;;;;10173030;28;20111;-64
2023/06/24 09:26:02;;;;;;;5.05;3.13;;;25.40;83.70;;;;;;10160956;28;20422;-63
2023/06/24 09:31:06;;;;;;;4.50;3.20;;;25.40;83.20;;;;;;10138073;28;20044;-63
2023/06/24 09:35:57;;;;;;;4.30;3.08;;;25.60;82.20;;;;;;10104871;28;20047;-62
2023/06/24 09:40:50;;;;;;;4.78;3.13;;;25.60;82.10;;;;;;10135853;28;20032;-64
2023/06/24 09:45:41;;;;;;;2.53;2.33;;;25.60;81.80;;;;;;10136552;28;20123;-62
2023/06/24 09:50:33;;;;;;;5.63;3.30;;;25.60;81.30;;;;;;10118108;28;20069;-62
2023/06/24 09:55:25;;;;;;;3.17;2.67;;;25.70;80.60;;;;;;10128992;28;20032;-63
2023/06/24 10:00:18;;;;;;;4.38;2.30;;;25.90;79.90;;;;;;10131596;28;20036;-62
2023/06/24 10:05:09;;;;;;;2.57;2.37;;;26.10;79.20;;;;;;10119965;28;20508;-62
2023/06/24 10:10:03;;;;;;;5.22;2.92;;;26.10;78.70;;;;;;10125002;28;20312;-62
2023/06/24 10:14:53;;;;;;;5.57;2.83;;;26.30;78.20;;;;;;10134144;28;20031;-64
2023/06/24 10:19:44;;;;;;;3.70;2.85;;;26.40;77.90;;;;;;10137018;28;20120;-63
2023/06/24 10:24:39;;;;;;;5.45;2.72;;;26.50;77.70;;;;;;10126198;28;20382;-61
2023/06/24 10:29:34;;;;;;;4.00;2.70;;;26.60;77.50;;;;;;10150394;28;20089;-64
2023/06/24 10:34:34;;;;;;;3.80;2.30;;;26.80;76.90;;;;;;10172579;28;20035;-63
2023/06/24 10:39:48;;;;;;;4.15;2.08;;;26.90;75.80;;;;;;10176045;28;20051;-62
2023/06/24 10:44:48;;;;;;;4.88;2.72;;;27.00;75.00;;;;;;10180198;28;20028;-62
2023/06/24 10:49:39;;;;;;;2.88;1.95;;;27.10;74.60;;;;;;10181483;28;20128;-62
2023/06/24 10:54:30;;;;;;;2.72;2.05;;;27.10;74.30;;;;;;10181895;28;20139;-64
2023/06/24 10:59:20;;;;;;;3.70;2.10;;;27.00;73.90;;;;;;10164178;28;20093;-62
2023/06/24 11:04:11;;;;;;;3.63;2.33;;;27.30;73.30;;;;;;10181704;28;20077;-62
2023/06/24 11:09:02;;;;;;;2.15;1.77;;;27.40;72.70;;;;;;10181073;28;20115;-62
2023/06/24 11:13:55;;;;;;;3.60;2.00;;;27.40;72.40;;;;;;10176901;28;20050;-62
2023/06/24 11:18:45;;;;;;;3.20;2.20;;;27.60;71.80;;;;;;10176569;28;20052;-62
2023/06/24 11:23:36;;;;;;;3.05;2.10;;;27.70;71.20;;;;;;10181235;28;20028;-64
2023/06/24 11:28:27;;;;;;;3.33;2.40;;;27.80;70.70;;;;;;10191084;28;20043;-62
2023/06/24 11:33:28;;;;;;;3.40;2.03;;;27.90;69.80;;;;;;10182180;28;20035;-62
2023/06/24 11:38:18;;;;;;;4.20;2.47;;;27.90;69.30;;;;;;10174541;28;20413;-62
2023/06/24 11:43:09;;;;;;;4.43;2.30;;;27.90;68.90;;;;;;10178335;28;20039;-61
2023/06/24 11:48:07;;;;;;;2.97;1.92;;;28.00;68.70;;;;;;10180827;28;20035;-62
2023/06/24 11:52:59;;;;;;;2.90;2.33;;;28.10;68.40;;;;;;10171518;28;20035;-63
2023/06/24 11:58:02;;;;;;;3.85;3.17;;;28.20;68.40;;;;;;10182331;28;20575;-64
2023/06/24 12:02:54;;;;;;;4.03;2.30;;;28.30;68.20;;;;;;10176757;28;20035;-62
2023/06/24 12:07:45;;;;;;;4.10;2.50;;;28.10;68.20;;;;;;10171895;28;20040;-62
2023/06/24 12:12:35;;;;;;;3.85;2.17;;;28.30;68.20;;;;;;10170998;28;20106;-63
2023/06/24 12:17:26;;;;;;;3.38;2.20;;;28.80;68.20;;;;;;10173851;28;20398;-62
2023/06/24 12:22:17;;;;;;;4.55;2.60;;;29.20;68.20;;;;;;10171855;28;20033;-61
2023/06/24 12:27:07;;;;;;;3.95;2.53;;;29.50;68.20;;;;;;10182139;28;20060;-63
2023/06/24 12:31:58;;;;;;;3.55;2.35;;;30.00;68.20;;;;;;10137324;28;20119;-62
2023/06/24 12:36:48;;;;;;;3.80;2.50;;;30.20;68.10;;;;;;10126730;28;20312;-62
2023/06/24 12:41:39;;;;;;;3.05;2.40;;;30.50;68.20;;;;;;10119255;28;20059;-62
2023/06/24 12:46:33;;;;;;;2.80;2.40;;;30.80;67.70;;;;;;10137583;28;20020;-63
2023/06/24 12:51:23;;;;;;;2.60;2.40;;;31.20;67.40;;;;;;10112524;28;20387;-62
2023/06/24 12:56:14;;;;;;;2.65;2.20;;;31.70;67.20;;;;;;10130913;28;20040;-62
2023/06/24 13:01:05;;;;;;;3.30;2.58;;;32.50;66.20;;;;;;10108869;28;20052;-63
2023/06/24 13:05:57;;;;;;;4.60;2.53;;;33.10;65.60;;;;;;10129745;28;20028;-61
2023/06/24 13:10:47;;;;;;;3.00;2.28;;;34.00;64.10;;;;;;10127365;28;20086;-63
2023/06/24 13:15:38;;;;;;;4.07;2.30;;;34.30;63.20;;;;;;10125637;28;20025;-63
2023/06/24 13:20:29;;;;;;;3.00;2.30;;;34.80;62.10;;;;;;10129958;28;20024;-62
2023/06/24 13:25:19;;;;;;;2.10;1.90;;;35.70;61.00;;;;;;10136346;28;20128;-64
2023/06/24 13:30:11;;;;;;;2.70;2.33;;;35.60;60.10;;;;;;10132867;28;20048;-63
2023/06/24 13:35:01;;;;;;;4.70;2.40;;;35.90;59.40;;;;;;10128033;28;20028;-63
2023/06/24 13:39:52;;;;;;;;;;;36.70;57.90;;;;;;10135907;28;20131;-62
2023/06/24 13:44:44;;;;;;;3.10;2.37;;;36.60;55.30;;;;;;10136234;28;20020;-63
2023/06/24 13:49:34;;;;;;;2.35;2.00;;;36.90;56.70;;;;;;10129433;28;20038;-64
2023/06/24 13:54:27;;;;;;;5.15;2.70;;;37.50;55.50;;;;;;10143709;28;20024;-62
2023/06/24 13:59:17;;;;;;;3.47;2.47;;;37.40;54.70;;;;;;10140918;28;20498;-62
2023/06/24 14:04:08;;;;;;;2.70;1.85;;;37.70;53.60;;;;;;10143001;28;20183;-62
2023/06/24 14:08:59;;;;;;;3.67;2.83;;;37.80;52.80;;;;;;10133542;28;20089;-62
2023/06/24 14:13:49;;;;;;;4.90;2.58;;;38.30;51.70;;;;;;10142396;28;20410;-62
2023/06/24 14:18:41;;;;;;;2.63;2.25;;;38.30;50.80;;;;;;10141222;28;20089;-63
2023/06/24 14:23:32;;;;;;;4.97;2.70;;;38.90;50.30;;;;;;10138907;28;20386;-63
2023/06/24 14:28:23;;;;;;;3.63;2.15;;;37.90;50.00;;;;;;10134210;28;20052;-62
2023/06/24 14:33:14;;;;;;;4.40;3.00;;;37.70;50.00;;;;;;10133062;28;20039;-64
2023/06/24 14:38:05;;;;;;;3.70;2.20;;;38.30;49.50;;;;;;10142072;28;20036;-64
2023/06/24 14:42:55;;;;;;;3.60;2.20;;;38.50;48.80;;;;;;10124511;28;20394;-64
2023/06/24 14:47:46;;;;;;;2.38;2.17;;;37.90;48.90;;;;;;10132249;28;20498;-65
2023/06/24 14:52:37;;;;;;;3.88;2.75;;;37.90;48.70;;;;;;10136520;28;20186;-64
2023/06/24 14:57:27;;;;;;;2.83;2.30;;;39.10;47.80;;;;;;10133401;28;20073;-64
2023/06/24 15:02:18;;;;;;;3.78;2.70;;;38.80;47.50;;;;;;10137163;28;20017;-63
2023/06/24 15:07:09;;;;;;;2.17;1.98;;;38.60;47.30;;;;;;10131137;28;20433;-62
2023/06/24 15:12:00;;;;;;;3.22;2.38;;;38.70;47.30;;;;;;10135650;28;20032;-63
2023/06/24 15:16:50;;;;;;;2.80;2.50;;;39.30;46.90;;;;;;10138293;28;20089;-63
2023/06/24 15:21:41;;;;;;;2.75;2.35;;;38.70;47.80;;;;;;10139927;28;20028;-62
2023/06/24 15:26:32;;;;;;;2.40;1.98;;;38.90;46.80;;;;;;10139965;28;20395;-63
2023/06/24 15:31:22;;;;;;;3.35;2.78;;;39.10;46.50;;;;;;10140862;28;20612;-63
2023/06/24 15:36:13;;;;;;;3.10;2.10;;;40.00;46.10;;;;;;10128168;28;20041;-62
2023/06/24 15:41:03;;;;;;;3.08;2.30;;;39.70;45.40;;;;;;10133042;28;20403;-62
2023/06/24 15:45:54;;;;;;;3.38;2.53;;;39.20;45.80;;;;;;10138737;28;20059;-62
2023/06/24 15:50:45;;;;;;;2.75;2.42;;;39.70;45.20;;;;;;10138282;28;20041;-62
2023/06/24 15:55:35;;;;;;;3.17;2.47;;;39.40;44.90;;;;;;10132972;28;20041;-65
2023/06/24 16:00:26;;;;;;;2.65;2.42;;;40.30;44.50;;;;;;10129064;28;20024;-63
2023/06/24 16:05:17;;;;;;;2.95;2.45;;;40.00;44.40;;;;;;10135697;28;20020;-62
2023/06/24 16:10:08;;;;;;;3.90;2.72;;;40.60;43.90;;;;;;10135898;28;20040;-63
2023/06/24 16:14:58;;;;;;;2.83;2.30;;;41.20;43.60;;;;;;10137514;28;20139;-63
2023/06/24 16:19:49;;;;;;;2.72;2.53;;;41.50;43.00;;;;;;10138089;28;20117;-65
2023/06/24 16:24:39;;;;;;;3.33;2.40;;;42.70;42.40;;;;;;10135251;28;20181;-64
2023/06/24 16:29:30;;;;;;;2.40;2.10;;;43.10;41.30;;;;;;10151573;28;20533;-63
2023/06/24 16:34:22;;;;;;;2.60;2.20;;;43.00;41.10;;;;;;10171398;28;20048;-64
2023/06/24 16:39:13;;;;;;;4.05;2.67;;;42.90;40.90;;;;;;10176852;28;20221;-62
2023/06/24 16:44:04;;;;;;;2.53;2.33;;;42.80;40.70;;;;;;10177220;28;20035;-63
2023/06/24 16:48:54;;;;;;;2.95;2.30;;;42.80;40.40;;;;;;10173082;28;20123;-64
2023/06/24 16:53:45;;;;;;;4.32;2.35;;;42.80;40.60;;;;;;10170813;28;20032;-61
2023/06/24 16:58:35;;;;;;;2.45;2.25;;;42.90;40.50;;;;;;10174397;28;20489;-64
2023/06/24 17:03:26;;;;;;;4.57;2.92;;;43.20;40.40;;;;;;10175893;28;20032;-63
2023/06/24 17:08:17;;;;;;;3.08;2.58;;;42.70;40.30;;;;;;10167838;28;20487;-64
2023/06/24 17:13:08;;;;;;;3.60;2.80;;;41.90;40.40;;;;;;10168217;28;20036;-64
2023/06/24 17:17:58;;;;;;;2.60;2.40;;;42.50;40.40;;;;;;10168530;28;20048;-63
2023/06/24 17:22:49;;;;;;;3.72;2.60;;;42.20;40.30;;;;;;10168655;28;20020;-62
2023/06/24 17:27:40;;;;;;;2.72;2.53;;;42.00;40.50;;;;;;10174517;28;20052;-64
2023/06/24 17:32:30;;;;;;;2.42;2.22;;;41.40;40.70;;;;;;10166710;28;20024;-65
2023/06/24 17:37:21;;;;;;;2.80;2.50;;;40.50;41.00;;;;;;10177163;28;20059;-63
2023/06/24 17:42:12;;;;;;;4.72;2.50;;;40.00;41.20;;;;;;10169805;28;20020;-63
2023/06/24 17:47:03;;;;;;;2.72;2.25;;;39.30;41.60;;;;;;10176294;28;20054;-64
2023/06/24 17:51:54;;;;;;;7.57;3.65;;;39.10;41.70;;;;;;10177417;28;20038;-63
2023/06/24 17:56:44;;;;;;;2.60;2.05;;;38.60;41.90;;;;;;10186106;28;20043;-65
2023/06/24 18:01:35;;;;;;;2.25;1.98;;;37.80;42.20;;;;;;10178992;28;20051;-63
2023/06/24 18:06:26;;;;;;;2.40;1.97;;;37.00;42.60;;;;;;10180861;28;20546;-65
2023/06/24 18:11:16;;;;;;;2.45;1.90;;;34.80;43.80;;;;;;10172143;28;20480;-63
2023/06/24 18:16:07;;;;;;;2.95;2.10;;;33.10;44.80;;;;;;10189866;28;20047;-63
2023/06/24 18:20:58;;;;;;;3.47;2.13;;;32.50;45.10;;;;;;10181754;28;20592;-63
2023/06/24 18:25:49;;;;;;;5.05;2.28;;;31.90;45.70;;;;;;10181328;28;20024;-62
2023/06/24 18:30:39;;;;;;;5.80;2.70;;;31.50;45.90;;;;;;10134417;28;20582;-63
2023/06/24 18:35:30;;;;;;;4.55;2.25;;;31.40;46.20;;;;;;10127606;28;20031;-62
2023/06/24 18:40:21;;;;;;;3.30;2.47;;;31.20;46.40;;;;;;10137293;28;20090;-63
2023/06/24 18:45:11;;;;;;;4.15;2.47;;;31.00;46.80;;;;;;10121862;28;20040;-62
2023/06/24 18:50:02;;;;;;;4.38;2.65;;;30.90;47.10;;;;;;10139918;28;20143;-63
2023/06/24 18:54:53;;;;;;;3.97;2.75;;;30.80;47.30;;;;;;10122972;28;20033;-63
2023/06/24 18:59:44;;;;;;;3.28;2.00;;;30.50;47.90;;;;;;10132997;28;20041;-63
2023/06/24 19:04:35;;;;;;;3.88;2.47;;;30.50;48.10;;;;;;10134595;28;20113;-63
2023/06/24 19:09:25;;;;;;;3.58;2.65;;;30.40;48.20;;;;;;10132207;28;20557;-63
2023/06/24 19:14:16;;;;;;;3.00;2.45;;;30.40;48.50;;;;;;10141224;28;20108;-63
2023/06/24 19:19:07;;;;;;;6.32;3.60;;;30.40;48.60;;;;;;10123199;28;20139;-63
2023/06/24 19:23:58;;;;;;;3.60;2.25;;;30.20;49.00;;;;;;10132848;28;20124;-63
2023/06/24 19:28:50;;;;;;;4.13;2.67;;;30.10;49.30;;;;;;10139947;28;20041;-65
2023/06/24 19:33:41;;;;;;;4.03;2.00;;;30.10;49.50;;;;;;10130115;28;20021;-65
2023/06/24 19:38:32;;;;;;;2.85;2.25;;;30.00;49.70;;;;;;10127603;28;20521;-64
2023/06/24 19:43:23;;;;;;;4.32;2.70;;;29.90;49.90;;;;;;10133751;28;20024;-63
2023/06/24 19:48:15;;;;;;;5.40;2.63;;;29.80;50.10;;;;;;10139278;28;20583;-64
2023/06/24 19:53:06;;;;;;;3.28;2.30;;;29.80;50.40;;;;;;10139161;28;20365;-63
2023/06/24 19:57:56;;;;;;;4.85;2.72;;;29.60;50.60;;;;;;10130119;28;20120;-64
2023/06/24 20:02:47;;;;;;;3.72;2.33;;;29.50;50.80;;;;;;10130922;28;20044;-65
2023/06/24 20:07:38;;;;;;;4.70;2.97;;;29.50;51.10;;;;;;10098812;28;20371;-65
2023/06/24 20:12:28;;;;;;;5.88;2.60;;;29.30;51.40;;;;;;10125691;28;20064;-64
2023/06/24 20:17:19;;;;;;;5.30;3.13;;;29.20;51.50;;;;;;10125573;28;20494;-64
2023/06/24 20:22:10;;;;;;;4.38;3.30;;;29.10;51.80;;;;;;10120518;28;20033;-63
2023/06/24 20:27:02;;;;;;;4.50;2.20;;;29.00;52.00;;;;;;10135787;28;20045;-65
2023/06/24 20:31:53;;;;;;;3.58;2.60;;;29.00;52.00;;;;;;10136982;28;20032;-64
2023/06/24 20:36:43;;;;;;;5.95;2.97;;;29.00;52.20;;;;;;10112545;28;20036;-67
2023/06/24 20:41:34;;;;;;;5.22;2.60;;;28.90;52.30;;;;;;10137910;28;20251;-63
2023/06/24 20:46:25;;;;;;;7.05;2.55;;;28.80;52.40;;;;;;10134992;28;20435;-64
2023/06/24 20:51:16;;;;;;;3.63;2.28;;;28.80;52.60;;;;;;10133666;28;20034;-61
2023/06/24 20:56:08;;;;;;;4.07;2.50;;;28.70;52.60;;;;;;10133948;28;20043;-65
2023/06/24 21:00:59;;;;;;;4.43;3.25;;;28.60;52.90;;;;;;10127791;28;20040;-63
2023/06/24 21:05:49;;;;;;;6.10;2.70;;;28.50;53.00;;;;;;10136698;28;20081;-63
2023/06/24 21:10:40;;;;;;;4.07;2.38;;;28.50;53.00;;;;;;10126090;28;20402;-64
2023/06/24 21:15:31;;;;;;;5.97;2.60;;;28.50;53.00;;;;;;10126017;28;20517;-63
2023/06/24 21:20:21;;;;;;;6.28;2.88;;;28.50;53.10;;;;;;10126454;28;20531;-64
2023/06/24 21:25:12;;;;;;;5.28;3.55;;;28.40;53.00;;;;;;10135764;28;20097;-64
2023/06/24 21:30:03;;;;;;;5.90;2.88;;;28.30;53.00;;;;;;10174481;28;20056;-66
2023/06/24 21:34:54;;;;;;;4.65;2.75;;;28.30;53.90;;;;;;10157682;28;20020;-62
2023/06/24 21:39:45;;;;;;;4.68;3.40;;;28.30;53.20;;;;;;10173064;28;20048;-62
2023/06/24 21:44:35;;;;;;;4.57;3.00;;;28.20;53.10;;;;;;10178491;28;20454;-62
2023/06/24 21:49:26;;;;;;;8.48;3.03;;;28.10;53.30;;;;;;10177447;28;20032;-63
2023/06/24 21:54:16;;;;;;;4.38;2.60;;;28.00;53.40;;;;;;10180261;28;20062;-63
2023/06/24 21:59:07;;;;;;;5.43;2.42;;;27.90;53.60;;;;;;10186700;28;20043;-64
2023/06/24 22:03:58;;;;;;;4.60;2.67;;;27.80;53.70;;;;;;10185741;28;20032;-63
2023/06/24 22:08:48;;;;;;;3.22;2.63;;;27.70;53.80;;;;;;10165968;28;20026;-63
2023/06/24 22:13:39;;;;;;;3.35;2.05;;;27.60;54.00;;;;;;10162182;28;20050;-62
2023/06/24 22:18:30;;;;;;;5.28;2.88;;;27.50;54.00;;;;;;10183619;28;20881;-63
2023/06/24 22:23:21;;;;;;;4.38;2.45;;;27.50;54.30;;;;;;10176882;28;20024;-63
2023/06/24 22:28:11;;;;;;;4.05;2.50;;;27.50;54.40;;;;;;10161287;28;20036;-62
2023/06/24 22:33:02;;;;;;;6.90;3.00;;;27.60;54.60;;;;;;10119393;28;20079;-63
2023/06/24 22:37:53;;;;;;;3.47;2.42;;;27.60;54.80;;;;;;10140419;28;20520;-62
2023/06/24 22:42:43;;;;;;;3.78;2.08;;;27.30;55.20;;;;;;10131652;28;20040;-64
2023/06/24 22:47:34;;;;;;;4.30;2.45;;;27.20;55.70;;;;;;10131317;28;20082;-62
2023/06/24 22:52:25;;;;;;;3.72;2.63;;;27.00;55.80;;;;;;10141513;28;20079;-64
2023/06/24 22:57:16;;;;;;;4.90;3.03;;;26.90;56.10;;;;;;10127389;28;20512;-64
2023/06/24 23:02:07;;;;;;;4.88;3.28;;;26.90;55.90;;;;;;10136611;28;20021;-62
2023/06/24 23:06:59;;;;;;;3.17;2.45;;;26.90;56.10;;;;;;10133682;28;20052;-63
2023/06/24 23:11:51;;;;;;;4.95;2.80;;;26.90;57.00;;;;;;10137295;28;20027;-62
2023/06/24 23:16:42;;;;;;;4.97;2.60;;;26.90;56.60;;;;;;10139902;28;20041;-63
2023/06/24 23:21:33;;;;;;;4.25;2.80;;;26.90;56.90;;;;;;10137958;28;20549;-62
2023/06/24 23:26:26;;;;;;;5.25;2.65;;;26.80;57.10;;;;;;10138801;28;20116;-63
2023/06/24 23:31:19;;;;;;;5.68;2.70;;;26.70;57.40;;;;;;10187730;28;20130;-63
2023/06/24 23:36:10;;;;;;;5.23;2.80;;;26.60;57.70;;;;;;10159700;28;20501;-63
2023/06/24 23:41:05;;;;;;;5.60;3.40;;;26.60;57.90;;;;;;10161205;28;20032;-64
2023/06/24 23:45:56;;;;;;;3.45;2.30;;;26.50;58.10;;;;;;10175653;28;20124;-63
2023/06/24 23:50:47;;;;;;;5.32;2.80;;;26.40;58.30;;;;;;10170700;28;20107;-63
2023/06/24 23:55:38;;;;;;;5.82;2.88;;;26.40;58.60;;;;;;10189114;28;20122;-62
